Time;durP1;ratioP1;P1;durP2;ratioP2;P2;SDS_P1;SDS_P2;PMS_P1;PMS_P2;Temp;Humidity;BMP_temperature;BMP_pressure;BME280_temperature;BME280_humidity;BME280_pressure;Samples;Min_cycle;Max_cycle;Signal;HPM_P1;HPM_P2
2021/03/03 00:00:56;;;;;;;10.00;6.03;;;;;;;1.76;76.93;101396.72;1681795;84;21450;-69
2021/03/03 00:03:24;;;;;;;9.13;6.00;;;;;;;1.74;77.10;101406.61;1684730;83;22134;-69
2021/03/03 00:05:52;;;;;;;9.90;6.42;;;;;;;1.72;77.16;101405.48;1746732;81;22775;-70
2021/03/03 00:08:30;;;;;;;9.60;6.03;;;;;;;1.71;77.25;101406.95;1736408;82;21207;-70
2021/03/03 00:10:58;;;;;;;13.30;6.60;;;;;;;1.70;77.33;101406.64;1723112;82;21209;-71
2021/03/03 00:13:26;;;;;;;11.83;6.40;;;;;;;1.69;77.40;101412.92;1733698;80;21202;-71
2021/03/03 00:15:53;;;;;;;10.32;6.25;;;;;;;1.69;77.46;101415.05;1738926;82;21656;-71
2021/03/03 00:18:21;;;;;;;10.75;6.12;;;;;;;1.68;77.54;101409.94;1697269;82;22800;-70
2021/03/03 00:20:50;;;;;;;9.78;5.75;;;;;;;1.65;77.62;101407.19;1694965;84;21246;-71
2021/03/03 00:23:19;;;;;;;11.55;5.72;;;;;;;1.66;77.69;101415.91;1742293;79;21179;-71
2021/03/03 00:25:46;;;;;;;11.18;6.08;;;;;;;1.65;77.79;101416.41;1748468;81;21207;-71
2021/03/03 00:28:14;;;;;;;12.43;6.17;;;;;;;1.64;77.80;101414.75;1715929;81;21179;-71
2021/03/03 00:30:42;;;;;;;11.50;6.30;;;;;;;1.61;77.88;101425.16;1733881;82;21827;-70
2021/03/03 00:33:10;;;;;;;11.05;5.95;;;;;;;1.56;77.97;101428.80;1698680;82;21171;-71
2021/03/03 00:35:38;;;;;;;11.45;5.70;;;;;;;1.55;78.04;101435.58;1651403;84;21222;-70
2021/03/03 00:38:06;;;;;;;11.15;6.70;;;;;;;1.52;78.14;101428.84;1744004;81;21207;-71
2021/03/03 00:40:34;;;;;;;10.18;6.05;;;;;;;1.51;78.20;101423.73;1737042;81;21183;-70
2021/03/03 00:43:02;;;;;;;9.50;5.35;;;;;;;1.50;78.29;101429.50;1733055;80;21622;-72
2021/03/03 00:45:30;;;;;;;9.88;5.80;;;;;;;1.49;78.35;101435.77;1734822;80;21183;-71
2021/03/03 00:47:58;;;;;;;10.18;6.53;;;;;;;1.50;78.40;101429.50;1740294;81;21228;-71
2021/03/03 00:50:27;;;;;;;10.05;6.80;;;;;;;1.51;78.37;101431.64;1730898;81;21196;-71
2021/03/03 00:52:55;;;;;;;9.43;6.37;;;;;;;1.50;78.37;101427.38;1690875;83;21249;-71
2021/03/03 00:55:25;;;;;;;10.80;6.80;;;;;;;1.48;78.42;101429.35;1690505;84;21234;-72
2021/03/03 00:57:54;;;;;;;11.35;6.65;;;;;;;1.45;78.44;101435.81;1694553;83;22485;-71
2021/03/03 01:00:24;;;;;;;12.07;6.53;;;;;;;1.44;78.47;101431.52;1718198;81;21128;-71
2021/03/03 01:02:53;;;;;;;10.23;6.08;;;;;;;1.43;78.51;101430.39;1729860;81;21259;-71
2021/03/03 01:05:22;;;;;;;11.35;6.40;;;;;;;1.40;78.56;101431.55;1745118;81;21699;-72
2021/03/03 01:07:51;;;;;;;11.95;6.55;;;;;;;1.38;78.60;101442.27;1736397;81;22405;-72
2021/03/03 01:10:19;;;;;;;10.85;5.80;;;;;;;1.37;78.70;101435.84;1747272;81;21204;-71
2021/03/03 01:12:49;;;;;;;10.03;6.05;;;;;;;1.36;78.74;101438.17;1732096;80;21602;-71
2021/03/03 01:15:17;;;;;;;10.03;5.87;;;;;;;1.36;78.77;101442.93;1745632;81;21120;-70
2021/03/03 01:17:46;;;;;;;9.05;5.90;;;;;;;1.33;78.78;101444.59;1739990;81;21144;-71
2021/03/03 01:20:14;;;;;;;8.95;5.72;;;;;;;1.32;78.86;101447.41;1745063;81;21809;-71
2021/03/03 01:22:42;;;;;;;9.53;5.95;;;;;;;1.32;78.92;101457.44;1734603;80;21089;-71
2021/03/03 01:25:11;;;;;;;9.00;5.58;;;;;;;1.30;79.00;101452.83;1739395;81;21148;-71
2021/03/03 01:27:39;;;;;;;11.35;6.12;;;;;;;1.31;79.01;101453.65;1741191;81;21192;-71
2021/03/03 01:30:08;;;;;;;9.33;5.60;;;;;;;1.29;79.02;101451.20;1741587;81;21237;-71
2021/03/03 01:32:36;;;;;;;11.50;6.28;;;;;;;1.26;79.05;101454.18;1688396;83;22212;-70
2021/03/03 01:35:04;;;;;;;9.63;5.33;;;;;;;1.26;79.05;101456.00;1745372;80;21227;-70
2021/03/03 01:37:32;;;;;;;9.78;5.70;;;;;;;1.24;79.03;101454.02;1748983;81;21077;-70
2021/03/03 01:39:59;;;;;;;9.75;6.03;;;;;;;1.19;79.13;101457.19;1746954;81;21116;-71
2021/03/03 01:42:27;;;;;;;10.20;5.42;;;;;;;1.15;79.20;101455.41;1740986;81;21061;-70
2021/03/03 01:44:55;;;;;;;13.13;6.42;;;;;;;1.14;79.26;101462.13;1719436;81;21343;-70
2021/03/03 01:47:23;;;;;;;13.53;6.90;;;;;;;1.12;79.27;101470.22;1742594;81;21200;-70
2021/03/03 01:49:50;;;;;;;13.15;6.78;;;;;;;1.10;79.32;101467.42;1743112;81;21132;-70
2021/03/03 01:52:18;;;;;;;10.38;6.62;;;;;;;1.06;79.37;101460.37;1735001;81;21201;-71
2021/03/03 01:54:46;;;;;;;10.98;5.92;;;;;;;1.04;79.44;101462.84;1739511;80;21176;-71
2021/03/03 01:57:13;;;;;;;9.80;5.70;;;;;;;1.02;79.49;101463.50;1739469;81;21611;-70
2021/03/03 01:59:43;;;;;;;11.65;6.58;;;;;;;0.98;79.56;101472.73;1748592;81;21156;-71
2021/03/03 02:02:11;;;;;;;10.30;6.30;;;;;;;0.96;79.69;101469.48;1729001;81;21187;-71
2021/03/03 02:04:39;;;;;;;9.88;6.15;;;;;;;0.94;79.72;101473.08;1747157;81;21647;-70
2021/03/03 02:07:15;;;;;;;11.95;6.62;;;;;;;0.92;79.82;101478.17;1738061;81;21490;-71
2021/03/03 02:10:07;;;;;;;10.75;6.50;;;;;;;0.92;79.89;101474.23;1746049;81;21796;-71
2021/03/03 02:12:51;;;;;;;10.40;6.85;;;;;;;0.90;79.96;101471.78;1737815;81;21080;-70
2021/03/03 02:15:19;;;;;;;11.08;6.45;;;;;;;0.89;79.98;101470.66;1738932;81;21132;-70
2021/03/03 02:17:47;;;;;;;11.43;6.50;;;;;;;0.88;80.00;101474.25;1720133;81;21112;-70
2021/03/03 02:20:16;;;;;;;10.38;6.62;;;;;;;0.86;80.06;101476.25;1711801;81;21173;-71
2021/03/03 02:23:05;;;;;;;10.40;6.10;;;;;;;0.86;80.11;101482.83;1686901;84;21180;-71
2021/03/03 02:25:36;;;;;;;10.10;6.30;;;;;;;0.87;80.20;101489.72;1685856;82;21194;-70
2021/03/03 02:28:06;;;;;;;9.30;6.05;;;;;;;0.85;80.24;101492.50;1704099;82;21266;-71
2021/03/03 02:30:40;;;;;;;8.78;5.80;;;;;;;0.85;80.25;101493.00;1737161;81;21172;-70
2021/03/03 02:33:09;;;;;;;11.33;6.30;;;;;;;0.84;80.32;101503.20;1744087;80;21155;-69
2021/03/03 02:35:37;;;;;;;10.50;6.62;;;;;;;0.84;80.35;101497.95;1712419;81;21795;-69
2021/03/03 02:38:05;;;;;;;11.48;6.22;;;;;;;0.85;80.34;101498.27;1715570;81;21437;-69
2021/03/03 02:40:33;;;;;;;10.90;6.17;;;;;;;0.84;80.39;101509.28;1745862;80;21064;-69
2021/03/03 02:43:01;;;;;;;12.10;6.60;;;;;;;0.84;80.39;101504.52;1744604;81;21144;-69
2021/03/03 02:45:29;;;;;;;11.95;6.95;;;;;;;0.83;80.42;101515.54;1716108;81;21163;-69
2021/03/03 02:47:56;;;;;;;11.55;6.72;;;;;;;0.82;80.43;101513.88;1735006;81;21279;-70
2021/03/03 02:50:24;;;;;;;9.53;5.70;;;;;;;0.81;80.41;101524.58;1690895;83;21138;-70
2021/03/03 02:52:54;;;;;;;9.03;5.70;;;;;;;0.80;80.39;101525.58;1692631;82;21522;-70
2021/03/03 02:55:25;;;;;;;10.68;6.00;;;;;;;0.77;80.43;101524.09;1745076;80;21180;-70
2021/03/03 02:57:55;;;;;;;9.95;6.28;;;;;;;0.78;80.45;101535.44;1745057;81;21172;-69
2021/03/03 03:00:37;;;;;;;14.55;6.50;;;;;;;0.76;80.46;101535.62;1738066;81;21164;-70
2021/03/03 03:03:41;;;;;;;10.13;5.75;;;;;;;0.75;80.50;101530.01;1734060;81;21658;-70
2021/03/03 03:06:34;;;;;;;10.10;5.70;;;;;;;0.73;80.55;101545.66;1743026;81;21125;-69
2021/03/03 03:09:20;;;;;;;9.98;5.90;;;;;;;0.69;80.56;101537.25;1748056;81;21196;-70
2021/03/03 03:12:07;;;;;;;9.18;5.65;;;;;;;0.68;80.64;101547.45;1741072;81;21073;-70
2021/03/03 03:14:53;;;;;;;8.90;5.33;;;;;;;0.66;80.63;101530.55;1740367;81;21372;-69
2021/03/03 03:17:21;;;;;;;10.00;5.92;;;;;;;0.65;80.70;101539.40;1742792;81;21456;-69
2021/03/03 03:19:51;;;;;;;9.98;5.50;;;;;;;0.64;80.71;101548.28;1734624;81;21682;-70
2021/03/03 03:22:21;;;;;;;11.57;6.20;;;;;;;0.63;80.72;101548.47;1743456;81;21200;-69
2021/03/03 03:24:49;;;;;;;11.75;6.30;;;;;;;0.60;80.79;101546.17;1746663;81;21215;-69
2021/03/03 03:27:17;;;;;;;10.50;5.90;;;;;;;0.60;80.76;101551.42;1739105;80;21218;-70
2021/03/03 03:29:44;;;;;;;13.22;6.40;;;;;;;0.60;80.79;101556.69;1741828;81;21084;-70
2021/03/03 03:32:14;;;;;;;10.25;6.25;;;;;;;0.58;80.79;101542.88;1736707;81;21183;-69
2021/03/03 03:34:42;;;;;;;10.58;5.70;;;;;;;0.58;80.84;101546.81;1737698;81;21750;-70
2021/03/03 03:37:10;;;;;;;11.55;6.25;;;;;;;0.56;80.87;101547.00;1740161;80;21455;-70
2021/03/03 03:39:37;;;;;;;11.48;6.15;;;;;;;0.55;80.86;101549.77;1710010;81;21578;-71
2021/03/03 03:42:05;;;;;;;9.95;6.20;;;;;;;0.52;80.92;101554.86;1743870;81;21182;-70
2021/03/03 03:44:33;;;;;;;10.98;6.60;;;;;;;0.53;80.91;101557.84;1723904;81;21108;-69
2021/03/03 03:47:01;;;;;;;13.18;6.45;;;;;;;0.51;80.92;101546.66;1735466;80;21128;-70
2021/03/03 03:49:28;;;;;;;10.30;6.67;;;;;;;0.47;80.93;101551.93;1749809;81;21173;-71
2021/03/03 03:51:56;;;;;;;11.25;6.60;;;;;;;0.44;80.94;101550.95;1743469;81;21603;-69
2021/03/03 03:54:23;;;;;;;10.70;6.42;;;;;;;0.42;80.99;101552.41;1663030;84;21090;-70
2021/03/03 03:56:51;;;;;;;10.40;6.58;;;;;;;0.40;80.99;101550.45;1690333;82;21312;-69
2021/03/03 03:59:18;;;;;;;10.98;6.35;;;;;;;0.37;81.04;101549.47;1721110;82;21188;-69
2021/03/03 04:01:46;;;;;;;11.80;6.35;;;;;;;0.35;81.11;101554.56;1728871;82;21065;-69
2021/03/03 04:04:14;;;;;;;12.23;6.95;;;;;;;0.31;81.13;101552.76;1724067;83;21403;-68
2021/03/03 04:06:41;;;;;;;11.15;7.03;;;;;;;0.28;81.18;101558.84;1702401;82;21214;-69
2021/03/03 04:09:09;;;;;;;11.03;6.25;;;;;;;0.25;81.22;101556.53;1698982;82;21155;-69
2021/03/03 04:11:37;;;;;;;12.68;7.40;;;;;;;0.23;81.27;101558.84;1684670;84;21142;-70
2021/03/03 04:14:10;;;;;;;13.43;7.35;;;;;;;0.19;81.30;101562.77;1706786;83;21184;-69
2021/03/03 04:16:36;;;;;;;12.73;6.92;;;;;;;0.19;81.33;101562.77;1738007;82;21269;-70
2021/03/03 04:19:04;;;;;;;13.48;7.53;;;;;;;0.16;81.34;101560.45;1688400;84;21167;-69
2021/03/03 04:21:32;;;;;;;12.33;7.87;;;;;;;0.13;81.37;101563.91;1674534;82;21213;-69
2021/03/03 04:24:00;;;;;;;13.08;7.25;;;;;;;0.11;81.44;101569.84;1729846;81;21215;-71
2021/03/03 04:26:27;;;;;;;14.35;7.67;;;;;;;0.08;81.47;101573.61;1728372;80;21123;-69
2021/03/03 04:28:55;;;;;;;13.80;8.05;;;;;;;0.05;81.49;101575.24;1740304;81;21631;-69
2021/03/03 04:31:23;;;;;;;12.80;7.72;;;;;;;0.02;81.53;101574.25;1744842;81;21179;-70
2021/03/03 04:33:50;;;;;;;14.30;8.23;;;;;;;-0.02;81.60;101580.32;1742414;81;21155;-69
2021/03/03 04:36:18;;;;;;;17.25;8.25;;;;;;;-0.05;81.67;101579.33;1743097;81;21168;-69
2021/03/03 04:38:45;;;;;;;15.03;8.53;;;;;;;-0.05;81.74;101582.45;1745393;80;21075;-69
2021/03/03 04:41:13;;;;;;;13.83;7.58;;;;;;;-0.08;81.76;101585.41;1737231;81;21386;-69
2021/03/03 04:43:41;;;;;;;12.35;7.55;;;;;;;-0.10;81.85;101585.58;1741196;81;21254;-69
2021/03/03 04:46:08;;;;;;;13.58;8.25;;;;;;;-0.11;81.91;101594.91;1748076;81;21219;-70
2021/03/03 04:48:36;;;;;;;13.55;7.80;;;;;;;-0.10;82.00;101593.45;1738778;81;21194;-70
2021/03/03 04:51:04;;;;;;;15.93;9.05;;;;;;;-0.09;82.02;101599.52;1741675;81;21588;-69
2021/03/03 04:53:31;;;;;;;13.00;8.18;;;;;;;-0.07;82.08;101592.28;1748089;80;21207;-69
2021/03/03 04:55:59;;;;;;;14.13;8.00;;;;;;;-0.05;82.06;101596.40;1738590;81;21143;-68
2021/03/03 04:58:27;;;;;;;11.10;7.12;;;;;;;-0.03;82.07;101605.45;1731503;80;21263;-69
2021/03/03 05:00:55;;;;;;;11.90;7.05;;;;;;;-0.01;82.05;101612.66;1747096;81;21073;-69
2021/03/03 05:03:24;;;;;;;11.63;7.03;;;;;;;0.00;82.04;101618.27;1734258;81;21172;-69
2021/03/03 05:05:52;;;;;;;12.68;6.05;;;;;;;0.02;82.06;101617.59;1732678;81;22697;-70
2021/03/03 05:08:19;;;;;;;11.15;6.62;;;;;;;0.06;82.04;101615.45;1722904;81;21160;-71
2021/03/03 05:10:48;;;;;;;12.03;7.85;;;;;;;0.08;82.03;101623.52;1740724;81;21157;-70
2021/03/03 05:13:16;;;;;;;14.23;8.63;;;;;;;0.11;81.96;101628.45;1736473;81;21592;-70
2021/03/03 05:15:44;;;;;;;13.05;8.60;;;;;;;0.16;81.92;101634.52;1736634;81;21180;-70
2021/03/03 05:18:11;;;;;;;14.28;7.85;;;;;;;0.21;81.89;101630.43;1749058;81;21219;-70
2021/03/03 05:20:39;;;;;;;12.78;7.50;;;;;;;0.26;81.78;101633.05;1747265;81;21674;-70
2021/03/03 05:23:07;;;;;;;12.23;6.45;;;;;;;0.30;81.69;101633.08;1678991;83;21132;-71
2021/03/03 05:25:37;;;;;;;11.78;6.45;;;;;;;0.32;81.62;101637.66;1735541;81;21278;-71
2021/03/03 05:28:05;;;;;;;11.68;6.67;;;;;;;0.34;81.59;101637.84;1744084;80;21196;-71
2021/03/03 05:30:33;;;;;;;12.82;6.40;;;;;;;0.39;81.57;101639.97;1741155;81;22350;-70
2021/03/03 05:33:01;;;;;;;13.75;7.42;;;;;;;0.42;81.52;101643.58;1722409;81;21215;-70
2021/03/03 05:35:29;;;;;;;14.38;8.45;;;;;;;0.44;81.48;101641.62;1722121;81;21192;-68
2021/03/03 05:37:57;;;;;;;11.48;7.70;;;;;;;0.49;81.42;101640.63;1727421;80;21176;-69
2021/03/03 05:40:24;;;;;;;15.03;6.95;;;;;;;0.55;81.31;101644.41;1729778;80;21152;-69
2021/03/03 05:42:53;;;;;;;13.10;8.00;;;;;;;0.57;81.21;101651.16;1726721;80;21684;-69
2021/03/03 05:45:21;;;;;;;11.57;7.15;;;;;;;0.64;81.13;101650.01;1671689;83;21165;-69
2021/03/03 05:47:49;;;;;;;12.45;8.03;;;;;;;0.71;81.02;101656.24;1710876;81;21263;-69
2021/03/03 05:50:17;;;;;;;11.48;7.45;;;;;;;0.76;80.86;101663.16;1741789;80;21152;-69
2021/03/03 05:52:45;;;;;;;11.10;7.00;;;;;;;0.80;80.66;101663.65;1696045;81;21152;-69
2021/03/03 05:55:14;;;;;;;11.85;6.97;;;;;;;0.86;80.56;101676.14;1741317;80;22697;-69
2021/03/03 05:57:41;;;;;;;11.25;6.70;;;;;;;0.92;80.37;101672.82;1740035;80;21199;-70
2021/03/03 06:00:11;;;;;;;12.18;7.00;;;;;;;0.99;80.17;101666.41;1745281;80;21180;-70
2021/03/03 06:02:39;;;;;;;10.45;7.00;;;;;;;1.06;80.01;101669.54;1739009;81;21262;-69
2021/03/03 06:05:09;;;;;;;13.55;7.50;;;;;;;1.12;79.65;101672.00;1749612;80;21121;-70
2021/03/03 06:07:37;;;;;;;11.15;7.45;;;;;;;1.17;79.46;101677.07;1712251;81;21447;-70
2021/03/03 06:10:07;;;;;;;12.78;6.90;;;;;;;1.24;79.20;101677.72;1742214;80;21239;-70
2021/03/03 06:12:34;;;;;;;10.90;7.25;;;;;;;1.27;78.97;101684.78;1740354;81;21045;-71
2021/03/03 06:15:04;;;;;;;12.80;6.97;;;;;;;1.34;78.76;101685.75;1739680;81;21255;-69
2021/03/03 06:17:32;;;;;;;14.18;7.55;;;;;;;1.39;78.50;101680.00;1739805;80;21144;-69
2021/03/03 06:20:03;;;;;;;12.68;7.50;;;;;;;1.46;78.28;101682.28;1745606;81;21809;-69
2021/03/03 06:22:31;;;;;;;9.38;6.55;;;;;;;1.53;77.99;101687.19;1712189;83;21146;-70
2021/03/03 06:24:58;;;;;;;12.75;6.78;;;;;;;1.60;77.68;101693.91;1734439;80;21752;-70
2021/03/03 06:27:37;;;;;;;11.93;7.30;;;;;;;1.66;77.34;101687.16;1739234;81;21612;-70
2021/03/03 06:30:10;;;;;;;13.10;7.33;;;;;;;1.68;76.99;101691.73;1742538;80;22017;-69
2021/03/03 06:32:58;;;;;;;9.73;6.40;;;;;;;1.72;76.69;101693.06;1736404;81;21378;-69
2021/03/03 06:35:42;;;;;;;10.88;6.67;;;;;;;1.74;76.29;101685.79;1738210;80;21154;-70
2021/03/03 06:38:13;;;;;;;10.85;6.70;;;;;;;1.78;75.99;101685.80;1744273;80;21593;-69
2021/03/03 06:40:56;;;;;;;13.62;6.67;;;;;;;1.81;75.69;101682.33;1721355;81;21290;-70
2021/03/03 06:43:29;;;;;;;11.18;7.05;;;;;;;1.86;75.52;101680.48;1680365;83;21132;-70
2021/03/03 06:46:18;;;;;;;10.60;6.67;;;;;;;1.98;75.30;101679.61;1807784;77;22801;-75
2021/03/03 06:48:46;;;;;;;;;;;;;;;1.98;74.96;101680.43;1757281;81;21203;-74
2021/03/03 06:51:32;;;;;;;11.40;6.87;;;;;;;2.04;74.74;101676.26;1747769;81;21803;-74
2021/03/03 06:54:02;;;;;;;12.43;6.85;;;;;;;2.10;74.51;101683.48;1718654;81;21271;-73
2021/03/03 06:56:37;;;;;;;11.08;6.80;;;;;;;2.18;74.26;101683.95;1716849;81;21148;-73
2021/03/03 06:59:27;;;;;;;10.58;6.45;;;;;;;2.25;73.92;101680.44;1731496;81;21830;-75
2021/03/03 07:02:13;;;;;;;11.35;6.45;;;;;;;2.31;73.64;101683.70;1742664;81;21112;-74
2021/03/03 07:04:44;;;;;;;10.95;6.55;;;;;;;2.37;73.39;101672.95;1739856;81;22157;-75
2021/03/03 07:07:19;;;;;;;11.22;6.62;;;;;;;2.42;72.90;101679.83;1750782;81;21073;-74
2021/03/03 07:09:53;;;;;;;11.45;6.95;;;;;;;2.45;72.63;101679.48;1731301;81;21264;-75
2021/03/03 07:12:27;;;;;;;13.28;6.53;;;;;;;2.47;72.28;101684.56;1727580;81;21120;-74
2021/03/03 07:14:58;;;;;;;12.95;7.35;;;;;;;2.51;71.98;101681.92;1737967;81;21119;-75
2021/03/03 07:17:36;;;;;;;11.18;6.75;;;;;;;2.54;71.79;101688.98;1710297;82;21342;-75
2021/03/03 07:20:15;;;;;;;9.90;6.33;;;;;;;2.61;71.72;101692.23;1721145;82;21278;-76
2021/03/03 07:22:52;;;;;;;12.28;6.83;;;;;;;2.67;71.42;101691.03;1723625;81;21484;-75
2021/03/03 07:25:21;;;;;;;12.58;7.17;;;;;;;2.75;71.25;101692.77;1717564;82;21265;-75
2021/03/03 07:27:51;;;;;;;10.40;6.45;;;;;;;2.80;70.84;101694.39;1721977;81;21160;-76
2021/03/03 07:30:27;;;;;;;10.58;6.42;;;;;;;2.84;70.58;101687.76;1722962;81;21432;-74
2021/03/03 07:32:58;;;;;;;11.88;7.33;;;;;;;2.88;70.30;101686.90;1719556;82;21180;-76
2021/03/03 07:35:28;;;;;;;11.05;7.25;;;;;;;2.92;70.14;101694.77;1717999;81;21594;-77
2021/03/03 07:37:56;;;;;;;11.43;6.97;;;;;;;2.99;69.96;101679.35;1720075;81;21141;-75
2021/03/03 07:40:27;;;;;;;11.65;6.97;;;;;;;3.05;69.71;101689.20;1722674;81;21224;-74
2021/03/03 07:42:56;;;;;;;10.80;6.95;;;;;;;3.11;69.49;101683.71;1720683;81;22721;-74
2021/03/03 07:45:40;;;;;;;11.93;7.33;;;;;;;3.17;69.33;101691.42;1711401;81;21645;-75
2021/03/03 07:48:11;;;;;;;12.13;6.42;;;;;;;3.24;69.08;101685.23;1702217;82;21656;-74
2021/03/03 07:50:42;;;;;;;11.90;7.37;;;;;;;3.30;68.85;101681.05;1773381;79;21185;-74
2021/03/03 07:53:12;;;;;;;;;;;;;;;3.35;68.70;101677.35;1774556;80;21181;-75
2021/03/03 07:55:41;;;;;;;11.63;7.58;;;;;;;3.43;68.47;101682.56;1741232;79;22478;-76
2021/03/03 07:58:09;;;;;;;11.12;6.85;;;;;;;3.50;68.30;101677.37;1741018;80;21235;-73
2021/03/03 08:00:40;;;;;;;13.68;7.15;;;;;;;3.55;67.90;101681.59;1741140;79;21223;-74
2021/03/03 08:03:07;;;;;;;10.45;7.00;;;;;;;3.59;67.63;101684.20;1767274;80;21172;-75
2021/03/03 08:05:39;;;;;;;12.93;6.83;;;;;;;3.66;67.47;101689.58;1736915;80;21228;-75
2021/03/03 08:08:28;;;;;;;11.35;6.92;;;;;;;3.69;67.12;101703.74;1768158;79;22367;-75
2021/03/03 08:11:05;;;;;;;12.07;6.40;;;;;;;3.69;67.04;101695.81;1759600;79;21205;-75
2021/03/03 08:13:36;;;;;;;12.45;6.92;;;;;;;3.75;66.90;101693.73;1695651;82;21085;-77
2021/03/03 08:16:06;;;;;;;10.03;6.30;;;;;;;3.81;66.56;101683.75;1709399;82;21194;-74
2021/03/03 08:18:54;;;;;;;13.05;7.33;;;;;;;3.85;66.10;101693.45;1712524;82;21190;-76
2021/03/03 08:21:26;;;;;;;13.50;7.12;;;;;;;3.87;66.13;101684.85;1692157;83;21837;-75
2021/03/03 08:24:00;;;;;;;11.70;6.83;;;;;;;3.93;65.84;101681.47;1771942;79;21097;-75
2021/03/03 08:26:34;;;;;;;15.32;7.58;;;;;;;3.98;65.55;101681.24;1766580;79;21672;-76
2021/03/03 08:29:20;;;;;;;11.00;7.42;;;;;;;4.04;65.46;101680.98;1774011;79;21180;-75
2021/03/03 08:31:47;;;;;;;12.37;7.90;;;;;;;4.08;65.26;101674.81;1770684;79;21160;-77
2021/03/03 08:34:16;;;;;;;12.13;7.40;;;;;;;4.16;65.08;101683.97;1764276;79;22428;-75
2021/03/03 08:36:49;;;;;;;11.22;7.08;;;;;;;4.22;64.85;101684.55;1772996;79;21218;-74
2021/03/03 08:39:23;;;;;;;13.20;7.83;;;;;;;4.28;64.67;101683.80;1770990;79;21187;-76
2021/03/03 08:41:52;;;;;;;11.97;7.35;;;;;;;4.33;64.38;101678.75;1776030;80;21243;-76
2021/03/03 08:44:20;;;;;;;11.25;7.55;;;;;;;4.39;64.18;101683.30;1764270;80;21244;-75
2021/03/03 08:46:50;;;;;;;11.50;8.03;;;;;;;4.46;64.06;101677.56;1772683;79;21385;-73
2021/03/03 08:49:25;;;;;;;13.68;8.05;;;;;;;4.54;64.03;101679.28;1763551;80;21247;-75
2021/03/03 08:52:11;;;;;;;13.25;8.73;;;;;;;4.63;63.74;101674.16;1767356;79;21216;-75
2021/03/03 08:54:46;;;;;;;16.67;8.70;;;;;;;4.70;63.64;101676.38;1769551;79;21276;-74
2021/03/03 08:57:32;;;;;;;12.73;8.60;;;;;;;4.80;63.46;101670.73;1767063;79;21242;-75
2021/03/03 09:00:00;;;;;;;13.25;8.60;;;;;;;4.88;63.17;101676.41;1765202;79;21832;-74
2021/03/03 09:02:38;;;;;;;11.85;7.50;;;;;;;4.95;63.10;101675.95;1773014;79;21227;-76
2021/03/03 09:05:08;;;;;;;11.85;7.75;;;;;;;4.98;62.48;101669.47;1770033;79;21469;-76
2021/03/03 09:07:36;;;;;;;11.38;7.72;;;;;;;4.97;62.60;101673.10;1771281;79;21639;-74
2021/03/03 09:10:15;;;;;;;12.82;8.10;;;;;;;5.01;62.51;101671.22;1770572;79;21178;-74
2021/03/03 09:12:44;;;;;;;13.30;7.90;;;;;;;5.07;62.18;101670.97;1762303;79;22222;-74
2021/03/03 09:15:14;;;;;;;17.00;9.63;;;;;;;5.13;62.35;101674.98;1762396;80;21153;-74
2021/03/03 09:17:43;;;;;;;12.70;7.85;;;;;;;5.14;62.11;101674.47;1769685;79;21133;-74
2021/03/03 09:20:16;;;;;;;14.15;8.55;;;;;;;5.19;61.74;101685.28;1764933;80;21175;-74
2021/03/03 09:22:45;;;;;;;13.32;7.80;;;;;;;5.24;61.60;101686.86;1769784;80;21160;-74
2021/03/03 09:25:17;;;;;;;11.70;7.83;;;;;;;5.27;61.57;101695.75;1764127;79;22068;-75
2021/03/03 09:27:53;;;;;;;12.47;7.87;;;;;;;5.29;60.93;101695.55;1771518;80;21176;-76
2021/03/03 09:30:23;;;;;;;11.33;7.08;;;;;;;5.30;60.88;101698.02;1776728;79;21201;-75
2021/03/03 09:32:52;;;;;;;13.60;8.60;;;;;;;5.34;60.81;101691.81;1778961;79;21161;-75
2021/03/03 09:35:31;;;;;;;11.60;7.83;;;;;;;5.40;60.74;101678.61;1764401;80;21247;-75
2021/03/03 09:37:59;;;;;;;10.72;6.75;;;;;;;5.50;60.55;101688.86;1766017;79;21387;-74
2021/03/03 09:40:32;;;;;;;12.58;7.60;;;;;;;5.56;60.40;101685.91;1769628;79;21194;-75
2021/03/03 09:43:01;;;;;;;10.45;6.85;;;;;;;5.54;60.33;101683.47;1769670;79;21239;-74
2021/03/03 09:45:29;;;;;;;10.98;7.62;;;;;;;5.52;60.29;101682.84;1767968;79;21357;-75
2021/03/03 09:47:57;;;;;;;11.15;6.78;;;;;;;5.56;60.31;101671.34;1770979;79;21235;-75
2021/03/03 09:53:07;;;;;;;10.23;6.90;;;;;;;5.71;59.79;101679.17;1792141;79;23425;-70
2021/03/03 09:55:35;;;;;;;13.03;6.85;;;;;;;5.76;59.54;101681.55;1769785;80;21205;-73
2021/03/03 09:58:04;;;;;;;11.08;7.10;;;;;;;5.84;59.08;101661.48;1727796;80;22708;-71
2021/03/03 10:00:37;;;;;;;11.60;6.50;;;;;;;5.88;59.05;101675.97;1732879;80;21176;-70
2021/03/03 10:03:13;;;;;;;9.78;6.37;;;;;;;5.91;58.89;101670.78;1739349;80;21524;-71
2021/03/03 10:05:42;;;;;;;12.43;7.03;;;;;;;5.95;58.73;101668.58;1759480;80;21164;-71
2021/03/03 10:08:12;;;;;;;10.82;6.65;;;;;;;5.99;58.72;101661.86;1762770;79;21695;-70
2021/03/03 10:10:50;;;;;;;9.33;6.53;;;;;;;6.05;58.79;101659.23;1741527;81;21385;-70
2021/03/03 10:13:27;;;;;;;11.83;5.75;;;;;;;6.16;58.59;101657.84;1763489;80;21301;-70
2021/03/03 10:15:57;;;;;;;10.55;5.87;;;;;;;6.26;57.97;101658.79;1760951;79;22450;-70
2021/03/03 10:18:24;;;;;;;12.33;6.03;;;;;;;6.20;57.63;101650.30;1765947;80;21129;-71
2021/03/03 10:20:55;;;;;;;8.45;5.25;;;;;;;6.17;57.83;101649.38;1768259;79;21148;-71
2021/03/03 10:23:27;;;;;;;9.83;5.60;;;;;;;6.24;57.79;101648.36;1763898;80;21181;-69
2021/03/03 10:26:07;;;;;;;9.85;5.10;;;;;;;6.31;57.67;101642.55;1766192;79;21198;-69
2021/03/03 10:28:36;;;;;;;8.75;5.12;;;;;;;6.37;57.11;101632.16;1766346;79;21188;-71
2021/03/03 10:31:07;;;;;;;8.85;5.85;;;;;;;6.29;57.02;101634.00;1766301;79;21318;-69
2021/03/03 10:33:40;;;;;;;9.78;5.40;;;;;;;6.30;57.41;101638.27;1754411;80;21128;-70
2021/03/03 10:36:21;;;;;;;8.38;4.75;;;;;;;6.32;57.00;101631.45;1755949;80;22276;-70
2021/03/03 10:38:53;;;;;;;8.45;5.37;;;;;;;6.32;57.17;101634.92;1748702;80;21228;-70
2021/03/03 10:41:28;;;;;;;11.97;5.60;;;;;;;6.39;56.96;101628.81;1749396;81;21169;-70
2021/03/03 10:43:57;;;;;;;9.08;5.25;;;;;;;6.40;56.64;101634.41;1739707;80;21192;-70
2021/03/03 10:46:26;;;;;;;8.50;5.40;;;;;;;6.37;56.79;101637.47;1749032;80;21136;-71
2021/03/03 10:48:56;;;;;;;8.75;5.95;;;;;;;6.44;57.07;101636.97;1748466;80;21214;-69
2021/03/03 10:51:36;;;;;;;8.28;4.70;;;;;;;6.51;57.03;101633.80;1744443;81;21192;-71
2021/03/03 10:54:04;;;;;;;8.58;5.25;;;;;;;6.55;56.80;101644.34;1754653;80;21093;-69
2021/03/03 10:56:38;;;;;;;8.68;5.30;;;;;;;6.47;56.90;101626.76;1754169;80;21214;-71
2021/03/03 11:01:50;;;;;;;11.33;6.17;;;;;;;6.42;56.99;101627.08;1819603;77;23289;-72
2021/03/03 11:04:18;;;;;;;9.08;5.45;;;;;;;6.32;57.20;101626.96;1787406;79;21590;-70
2021/03/03 11:06:45;;;;;;;8.65;5.90;;;;;;;6.34;57.38;101628.88;1811023;77;22689;-70
2021/03/03 11:09:16;;;;;;;8.95;5.15;;;;;;;6.36;57.46;101619.41;1806640;77;21172;-68
2021/03/03 11:11:51;;;;;;;8.10;5.22;;;;;;;6.40;57.38;101617.16;1808883;77;21152;-71
2021/03/03 11:14:19;;;;;;;9.40;5.42;;;;;;;6.42;57.44;101609.83;1804454;77;21270;-70
2021/03/03 11:16:47;;;;;;;7.22;4.85;;;;;;;6.46;57.41;101619.83;1808581;77;21156;-69
2021/03/03 11:19:16;;;;;;;8.33;5.22;;;;;;;6.53;57.38;101616.66;1805276;78;21574;-69
2021/03/03 11:21:45;;;;;;;9.88;5.78;;;;;;;6.59;57.36;101621.67;1809850;77;21211;-70
2021/03/03 11:24:13;;;;;;;7.47;4.80;;;;;;;6.63;56.84;101606.95;1819779;78;21136;-68
2021/03/03 11:26:43;;;;;;;9.35;4.90;;;;;;;6.62;56.72;101610.64;1795299;79;21171;-68
2021/03/03 11:29:11;;;;;;;8.33;5.28;;;;;;;6.64;56.63;101599.80;1800133;79;21630;-68
2021/03/03 11:31:39;;;;;;;8.48;5.67;;;;;;;6.67;56.39;101607.36;1797507;79;22330;-68
2021/03/03 11:34:07;;;;;;;9.83;5.60;;;;;;;6.69;56.20;101604.00;1792642;79;21167;-68
2021/03/03 11:36:35;;;;;;;9.18;5.50;;;;;;;6.66;56.14;101606.55;1798350;79;21183;-69
2021/03/03 11:39:06;;;;;;;8.13;4.92;;;;;;;6.57;55.99;101599.81;1802372;78;21194;-68
2021/03/03 11:41:33;;;;;;;6.97;4.42;;;;;;;6.46;56.11;101599.11;1792046;79;21062;-69
2021/03/03 11:48:23;;;;;;;7.30;4.08;;;;;;;6.25;56.50;101597.44;1800023;78;21547;-69
2021/03/03 11:50:51;;;;;;;7.87;4.75;;;;;;;6.19;56.85;101607.05;1810870;79;21151;-66
2021/03/03 11:53:19;;;;;;;8.80;4.70;;;;;;;6.18;56.63;101586.82;1802344;79;21103;-67